createdAt,value
2022-10-23T00:03:41.194Z,99314.97
2022-10-23T00:08:45.348Z,99328.31
2022-10-23T00:13:50.494Z,99327.41
2022-10-23T00:18:53.734Z,99313.28
2022-10-23T00:23:56.886Z,99315.09
2022-10-23T00:29:01.312Z,99311.31
2022-10-23T00:34:08.076Z,99311.56
2022-10-23T00:39:11.282Z,99306.00
2022-10-23T00:44:47.576Z,99305.84
2022-10-23T00:49:51.901Z,99316.38
2022-10-23T00:54:54.861Z,99311.69
2022-10-23T00:59:57.804Z,99313.84
2022-10-23T01:05:02.158Z,99307.78
2022-10-23T01:10:12.629Z,99305.03
2022-10-23T01:15:20.564Z,99309.94
2022-10-23T01:20:38.339Z,99314.69
2022-10-23T01:26:03.663Z,99315.81
2022-10-23T01:31:15.370Z,99317.78
2022-10-23T01:36:21.788Z,99310.56
2022-10-23T01:41:36.743Z,99316.63
2022-10-23T01:46:43.547Z,99302.19
2022-10-23T01:51:50.830Z,99309.63
2022-10-23T01:56:55.159Z,99313.09
2022-10-23T02:02:05.503Z,99314.78
2022-10-23T02:07:09.115Z,99311.19
2022-10-23T02:12:19.728Z,99297.59
2022-10-23T02:17:32.380Z,99297.63
2022-10-23T02:22:41.566Z,99298.88
2022-10-23T02:27:48.777Z,99290.84
2022-10-23T02:32:56.598Z,99281.50
2022-10-23T02:38:02.048Z,99283.84
2022-10-23T02:43:15.344Z,99289.56
2022-10-23T02:48:24.216Z,99273.03
2022-10-23T02:53:36.475Z,99272.41
2022-10-23T02:58:46.335Z,99280.25
2022-10-23T03:03:54.649Z,99278.72
2022-10-23T03:09:00.629Z,99273.75
2022-10-23T03:14:03.630Z,99272.50
2022-10-23T03:19:08.025Z,99274.88
2022-10-23T03:24:11.088Z,99278.53
2022-10-23T03:29:18.227Z,99267.28
2022-10-23T03:34:23.706Z,99269.94
2022-10-23T03:39:29.276Z,99271.72
2022-10-23T03:44:34.161Z,99276.25
2022-10-23T03:49:38.706Z,99282.63
2022-10-23T03:54:42.728Z,99275.75
2022-10-23T03:59:46.708Z,99275.59
2022-10-23T04:04:50.987Z,99280.84
2022-10-23T04:09:55.057Z,99280.91
2022-10-23T04:14:58.097Z,99271.44
2022-10-23T04:20:02.556Z,99267.81
2022-10-23T04:25:05.951Z,99261.97
2022-10-23T04:30:12.117Z,99275.09
2022-10-23T04:35:16.951Z,99282.81
2022-10-23T04:40:19.928Z,99269.91
2022-10-23T04:45:23.315Z,99269.91
2022-10-23T04:50:27.885Z,99259.66
2022-10-23T04:56:01.778Z,99275.31
2022-10-23T05:01:24.141Z,99275.06
2022-10-23T05:06:28.844Z,99277.50
2022-10-23T05:11:52.075Z,99269.28
2022-10-23T05:16:58.963Z,99280.19
2022-10-23T05:22:03.683Z,99274.31
2022-10-23T05:27:21.896Z,99272.13
2022-10-23T05:32:27.037Z,99263.88
2022-10-23T05:37:32.431Z,99266.28
2022-10-23T05:42:49.625Z,99274.19
2022-10-23T05:48:05.753Z,99259.88
2022-10-23T05:53:43.979Z,99261.50
2022-10-23T05:59:08.064Z,99256.47
2022-10-23T06:04:24.369Z,99264.09
2022-10-23T06:09:47.117Z,99267.91
2022-10-23T06:14:51.029Z,99270.53
2022-10-23T06:20:00.888Z,99266.44
2022-10-23T06:25:06.241Z,99263.22
2022-10-23T06:30:10.719Z,99270.00
2022-10-23T06:35:13.807Z,99275.66
2022-10-23T06:40:18.387Z,99278.31
2022-10-23T06:45:47.447Z,99271.41
2022-10-23T06:50:50.622Z,99285.63
2022-10-23T06:56:02.151Z,99276.03
2022-10-23T07:01:08.001Z,99272.94
2022-10-23T07:06:12.447Z,99278.44
2022-10-23T07:11:16.799Z,99286.88
2022-10-23T07:16:23.637Z,99286.84
2022-10-23T07:21:26.989Z,99289.59
2022-10-23T07:26:34.769Z,99278.81
2022-10-23T07:31:39.188Z,99287.25
2022-10-23T07:37:07.997Z,99283.56
2022-10-23T07:42:12.779Z,99267.66
2022-10-23T07:47:17.328Z,99278.22
2022-10-23T07:52:24.755Z,99272.31
2022-10-23T07:57:49.410Z,99271.09
2022-10-23T08:03:13.795Z,99268.78
2022-10-23T08:08:17.431Z,99273.31
2022-10-23T08:13:24.912Z,99274.63
2022-10-23T08:18:33.272Z,99279.66
2022-10-23T08:23:36.244Z,99267.66
2022-10-23T08:28:40.662Z,99266.91
2022-10-23T08:33:44.041Z,99255.91
2022-10-23T08:38:47.437Z,99255.72
2022-10-23T08:44:01.659Z,99257.06
2022-10-23T08:49:21.706Z,99252.47
2022-10-23T08:54:40.130Z,99246.97
2022-10-23T08:59:48.266Z,99239.97
2022-10-23T09:04:53.888Z,99238.84
2022-10-23T09:10:10.074Z,99236.81
2022-10-23T09:15:31.245Z,99241.03
2022-10-23T09:20:37.102Z,99219.38
2022-10-23T09:25:42.112Z,99207.81
2022-10-23T09:30:46.442Z,99227.59
2022-10-23T09:35:58.291Z,99227.03
2022-10-23T09:41:04.376Z,99231.88
2022-10-23T09:46:09.800Z,99221.38
2022-10-23T09:51:19.084Z,99230.69
2022-10-23T09:56:27.658Z,99219.25
2022-10-23T10:01:36.189Z,99221.63
2022-10-23T10:06:59.496Z,99231.09
2022-10-23T10:12:19.487Z,99228.00
2022-10-23T10:17:36.357Z,99237.31
2022-10-23T10:22:48.296Z,99228.47
2022-10-23T10:28:01.942Z,99216.34
2022-10-23T10:33:15.738Z,99213.53
2022-10-23T10:38:46.441Z,99199.22
2022-10-23T10:44:00.043Z,99190.56
2022-10-23T10:49:12.329Z,99184.94
2022-10-23T10:54:41.000Z,99176.56
2022-10-23T10:59:47.821Z,99163.63
2022-10-23T11:04:58.161Z,99155.44
2022-10-23T11:10:04.463Z,99165.56
2022-10-23T11:15:15.244Z,99167.66
2022-10-23T11:20:31.419Z,99150.91
2022-10-23T11:25:58.799Z,99151.94
2022-10-23T11:31:13.088Z,99133.63
2022-10-23T11:36:20.202Z,99120.88
2022-10-23T11:41:27.393Z,99118.75
2022-10-23T11:46:36.870Z,99123.00
2022-10-23T11:51:42.140Z,99117.13
2022-10-23T11:56:55.756Z,99111.00
2022-10-23T12:02:01.749Z,99105.38
2022-10-23T12:07:17.924Z,99109.50
2022-10-23T12:12:30.094Z,99104.69
2022-10-23T12:17:37.615Z,99096.81
2022-10-23T12:22:49.755Z,99094.97
2022-10-23T12:28:01.295Z,99076.34
2022-10-23T12:33:16.328Z,99059.19
2022-10-23T12:38:23.726Z,99061.69
2022-10-23T12:43:29.439Z,99052.97
2022-10-23T12:48:34.739Z,99036.19
2022-10-23T12:53:39.065Z,99027.31
2022-10-23T12:58:49.552Z,99041.22
2022-10-23T13:03:53.680Z,99031.59
2022-10-23T13:08:58.400Z,99023.53
2022-10-23T13:14:14.876Z,99020.47
2022-10-23T13:19:25.910Z,99008.72
2022-10-23T13:24:32.075Z,99005.69
2022-10-23T13:29:36.207Z,99005.97
2022-10-23T13:34:39.324Z,99009.16
2022-10-23T13:39:44.283Z,99006.38
2022-10-23T13:44:47.536Z,99006.28
2022-10-23T13:49:50.628Z,98998.59
2022-10-23T13:54:54.919Z,98996.06
2022-10-23T13:59:58.155Z,99005.59
2022-10-23T14:05:01.249Z,98991.66
2022-10-23T14:10:06.545Z,98987.34
2022-10-23T14:15:10.908Z,98979.72
2022-10-23T14:20:14.276Z,98968.06
2022-10-23T14:25:18.908Z,98977.84
2022-10-23T14:30:21.846Z,98962.75
2022-10-23T14:35:25.573Z,98952.38
2022-10-23T14:40:29.867Z,98953.09
2022-10-23T14:45:33.074Z,98960.78
2022-10-23T14:50:38.107Z,98953.03
2022-10-23T14:55:42.678Z,98946.75
2022-10-23T15:00:45.594Z,98935.34
2022-10-23T15:05:48.508Z,98917.47
2022-10-23T15:10:52.795Z,98915.53
2022-10-23T15:16:03.139Z,98920.09
2022-10-23T15:21:08.187Z,98918.47
2022-10-23T15:26:17.223Z,98918.91
2022-10-23T15:31:41.918Z,98923.94
2022-10-23T15:36:46.867Z,98907.78
2022-10-23T15:41:52.627Z,98905.88
2022-10-23T15:46:56.963Z,98915.41
2022-10-23T15:52:00.325Z,98920.56
2022-10-23T15:57:05.477Z,98903.50
2022-10-23T16:02:09.017Z,98907.13
2022-10-23T16:07:12.047Z,98909.16
2022-10-23T16:12:17.198Z,98892.94
2022-10-23T16:17:20.550Z,98899.13
2022-10-23T16:22:23.464Z,98902.69
2022-10-23T16:27:27.817Z,98886.88
2022-10-23T16:32:30.720Z,98882.22
2022-10-23T16:37:34.052Z,98878.97
2022-10-23T16:42:44.194Z,98878.63
2022-10-23T16:47:58.673Z,98869.56
2022-10-23T16:53:01.609Z,98867.44
2022-10-23T16:58:05.918Z,98861.66
2022-10-23T17:03:09.671Z,98866.31
2022-10-23T17:08:12.585Z,98861.72
2022-10-23T17:13:16.825Z,98852.94
2022-10-23T17:18:19.704Z,98853.47
2022-10-23T17:23:23.401Z,98837.88
2022-10-23T17:28:27.843Z,98840.28
2022-10-23T17:33:30.744Z,98834.94
2022-10-23T17:38:36.620Z,98838.28
2022-10-23T17:43:41.258Z,98822.53
2022-10-23T17:48:44.484Z,98816.75
2022-10-23T17:53:49.626Z,98803.31
2022-10-23T17:58:55.491Z,98807.97
2022-10-23T18:04:01.655Z,98799.75
2022-10-23T18:09:06.203Z,98796.78
2022-10-23T18:14:11.513Z,98799.34
2022-10-23T18:19:14.949Z,98795.78
2022-10-23T18:24:19.028Z,98793.13
2022-10-23T18:29:23.353Z,98780.50
2022-10-23T18:34:26.910Z,98763.59
2022-10-23T18:39:29.906Z,98762.22
2022-10-23T18:44:34.179Z,98759.97
2022-10-23T18:49:37.135Z,98742.50
2022-10-23T18:54:40.127Z,98726.94
2022-10-23T18:59:44.395Z,98718.41
2022-10-23T19:04:47.540Z,98720.53
2022-10-23T19:09:50.726Z,98738.16
2022-10-23T19:14:55.836Z,98744.59
2022-10-23T19:20:03.979Z,98737.81
2022-10-23T19:25:11.355Z,98721.81
2022-10-23T19:30:20.562Z,98711.28
2022-10-23T19:35:25.626Z,98710.25
2022-10-23T19:40:28.607Z,98719.94
2022-10-23T19:45:33.049Z,98700.72
2022-10-23T19:50:36.273Z,98692.66
2022-10-23T19:55:39.206Z,98677.81
2022-10-23T20:00:43.679Z,98666.34
2022-10-23T20:05:46.728Z,98662.69
2022-10-23T20:10:49.684Z,98665.63
2022-10-23T20:15:53.965Z,98649.75
2022-10-23T20:20:56.850Z,98648.41
2022-10-23T20:26:06.593Z,98656.47
2022-10-23T20:31:12.090Z,98647.63
2022-10-23T20:36:24.699Z,98631.91
2022-10-23T20:41:28.984Z,98639.22
2022-10-23T20:46:33.599Z,98634.06
2022-10-23T20:51:36.864Z,98652.25
2022-10-23T20:56:40.862Z,98656.22
2022-10-23T21:01:49.556Z,98671.66
2022-10-23T21:07:11.150Z,98669.88
2022-10-23T21:12:14.510Z,98664.44
2022-10-23T21:17:18.790Z,98695.00
2022-10-23T21:22:21.759Z,98703.63
2022-10-23T21:27:24.656Z,98722.88
2022-10-23T21:32:28.953Z,98739.00
2022-10-23T21:37:31.864Z,98773.31
2022-10-23T21:42:34.772Z,98801.38
2022-10-23T21:47:39.040Z,98829.88
2022-10-23T21:52:42.081Z,98810.75
2022-10-23T21:57:45.227Z,98807.56
2022-10-23T22:02:49.862Z,98820.28
2022-10-23T22:07:53.230Z,98831.81
2022-10-23T22:12:56.179Z,98841.47
2022-10-23T22:18:00.519Z,98846.41
2022-10-23T22:23:03.427Z,98833.63
2022-10-23T22:28:06.362Z,98826.09
2022-10-23T22:33:10.620Z,98787.47
2022-10-23T22:38:14.073Z,98772.88
2022-10-23T22:43:16.988Z,98791.31
2022-10-23T22:48:21.317Z,98776.81
2022-10-23T22:53:24.207Z,98779.88
2022-10-23T22:58:27.721Z,98788.66
2022-10-23T23:03:32.048Z,98774.28
2022-10-23T23:08:36.028Z,98782.84
2022-10-23T23:13:39.141Z,98785.84
2022-10-23T23:18:43.386Z,98777.47
2022-10-23T23:23:46.785Z,98764.19
2022-10-23T23:28:51.892Z,98757.47
2022-10-23T23:33:56.628Z,98761.66
2022-10-23T23:38:59.997Z,98777.16
2022-10-23T23:44:02.976Z,98765.19
2022-10-23T23:49:07.270Z,98764.69
2022-10-23T23:54:11.469Z,98750.72
2022-10-23T23:59:14.459Z,98755.13
